sensor_id;sensor_type;location;lat;lon;timestamp;P1;durP1;ratioP1;P2;durP2;ratioP2
33672;SDS011;20011;51.510;9.942;2023-08-07T00:02:05;5.32;;;1.92;;
33672;SDS011;20011;51.510;9.942;2023-08-07T00:04:33;4.32;;;1.42;;
33672;SDS011;20011;51.510;9.942;2023-08-07T00:07:00;3.28;;;1.52;;
33672;SDS011;20011;51.510;9.942;2023-08-07T00:09:27;3.10;;;1.52;;
33672;SDS011;20011;51.510;9.942;2023-08-07T00:11:53;3.42;;;1.48;;
33672;SDS011;20011;51.510;9.942;2023-08-07T00:14:21;3.10;;;1.30;;
33672;SDS011;20011;51.510;9.942;2023-08-07T00:16:47;2.58;;;1.05;;
33672;SDS011;20011;51.510;9.942;2023-08-07T00:19:14;1.40;;;1.30;;
33672;SDS011;20011;51.510;9.942;2023-08-07T00:21:41;3.58;;;1.60;;
33672;SDS011;20011;51.510;9.942;2023-08-07T00:24:08;2.92;;;1.70;;
33672;SDS011;20011;51.510;9.942;2023-08-07T00:26:35;9.68;;;1.48;;
33672;SDS011;20011;51.510;9.942;2023-08-07T00:29:02;2.47;;;1.65;;
33672;SDS011;20011;51.510;9.942;2023-08-07T00:31:29;7.38;;;1.85;;
33672;SDS011;20011;51.510;9.942;2023-08-07T00:33:58;2.63;;;1.60;;
33672;SDS011;20011;51.510;9.942;2023-08-07T00:36:26;6.85;;;2.03;;
33672;SDS011;20011;51.510;9.942;2023-08-07T00:38:55;3.60;;;1.90;;
33672;SDS011;20011;51.510;9.942;2023-08-07T00:41:22;2.28;;;1.63;;
33672;SDS011;20011;51.510;9.942;2023-08-07T00:43:49;3.35;;;1.73;;
33672;SDS011;20011;51.510;9.942;2023-08-07T00:46:17;2.22;;;1.60;;
33672;SDS011;20011;51.510;9.942;2023-08-07T00:48:45;1.90;;;1.42;;
33672;SDS011;20011;51.510;9.942;2023-08-07T00:51:12;7.13;;;1.58;;
33672;SDS011;20011;51.510;9.942;2023-08-07T00:53:41;4.45;;;1.48;;
33672;SDS011;20011;51.510;9.942;2023-08-07T00:56:08;3.63;;;1.42;;
33672;SDS011;20011;51.510;9.942;2023-08-07T00:58:35;4.88;;;1.50;;
33672;SDS011;20011;51.510;9.942;2023-08-07T01:01:03;4.82;;;1.70;;
33672;SDS011;20011;51.510;9.942;2023-08-07T01:03:31;2.92;;;1.63;;
33672;SDS011;20011;51.510;9.942;2023-08-07T01:05:59;3.05;;;1.27;;
33672;SDS011;20011;51.510;9.942;2023-08-07T01:08:28;1.92;;;1.35;;
33672;SDS011;20011;51.510;9.942;2023-08-07T01:11:07;3.75;;;1.35;;
33672;SDS011;20011;51.510;9.942;2023-08-07T01:14:01;2.55;;;1.50;;
33672;SDS011;20011;51.510;9.942;2023-08-07T01:16:43;1.90;;;1.30;;
33672;SDS011;20011;51.510;9.942;2023-08-07T01:19:23;2.75;;;1.40;;
33672;SDS011;20011;51.510;9.942;2023-08-07T01:22:04;4.13;;;1.35;;
33672;SDS011;20011;51.510;9.942;2023-08-07T01:24:33;2.45;;;1.17;;
33672;SDS011;20011;51.510;9.942;2023-08-07T01:27:14;2.85;;;1.10;;
33672;SDS011;20011;51.510;9.942;2023-08-07T01:32:14;5.53;;;1.50;;
33672;SDS011;20011;51.510;9.942;2023-08-07T01:34:45;2.13;;;1.27;;
33672;SDS011;20011;51.510;9.942;2023-08-07T01:37:14;2.53;;;1.23;;
33672;SDS011;20011;51.510;9.942;2023-08-07T01:39:42;3.42;;;1.45;;
33672;SDS011;20011;51.510;9.942;2023-08-07T01:42:11;1.83;;;1.50;;
33672;SDS011;20011;51.510;9.942;2023-08-07T01:44:38;3.53;;;1.88;;
33672;SDS011;20011;51.510;9.942;2023-08-07T01:47:05;5.60;;;1.23;;
33672;SDS011;20011;51.510;9.942;2023-08-07T01:49:32;2.63;;;1.48;;
33672;SDS011;20011;51.510;9.942;2023-08-07T01:51:59;5.40;;;1.50;;
33672;SDS011;20011;51.510;9.942;2023-08-07T01:54:27;1.83;;;1.05;;
33672;SDS011;20011;51.510;9.942;2023-08-07T01:56:54;3.67;;;1.30;;
33672;SDS011;20011;51.510;9.942;2023-08-07T01:59:21;3.25;;;1.40;;
33672;SDS011;20011;51.510;9.942;2023-08-07T02:01:48;2.97;;;1.50;;
33672;SDS011;20011;51.510;9.942;2023-08-07T02:04:15;2.15;;;1.13;;
33672;SDS011;20011;51.510;9.942;2023-08-07T02:06:42;5.78;;;1.30;;
33672;SDS011;20011;51.510;9.942;2023-08-07T02:09:09;3.50;;;1.27;;
33672;SDS011;20011;51.510;9.942;2023-08-07T02:11:36;1.63;;;1.15;;
33672;SDS011;20011;51.510;9.942;2023-08-07T02:14:02;3.30;;;0.98;;
33672;SDS011;20011;51.510;9.942;2023-08-07T02:16:29;3.53;;;1.30;;
33672;SDS011;20011;51.510;9.942;2023-08-07T02:18:56;2.15;;;1.35;;
33672;SDS011;20011;51.510;9.942;2023-08-07T02:21:23;2.08;;;1.27;;
33672;SDS011;20011;51.510;9.942;2023-08-07T02:23:53;0.90;;;0.80;;
33672;SDS011;20011;51.510;9.942;2023-08-07T02:26:19;2.35;;;1.30;;
33672;SDS011;20011;51.510;9.942;2023-08-07T02:28:46;1.25;;;1.13;;
33672;SDS011;20011;51.510;9.942;2023-08-07T02:31:13;0.95;;;0.80;;
33672;SDS011;20011;51.510;9.942;2023-08-07T02:33:40;5.05;;;2.03;;
33672;SDS011;20011;51.510;9.942;2023-08-07T02:36:07;3.75;;;1.10;;
33672;SDS011;20011;51.510;9.942;2023-08-07T02:38:34;0.95;;;0.80;;
33672;SDS011;20011;51.510;9.942;2023-08-07T02:41:01;1.52;;;1.00;;
33672;SDS011;20011;51.510;9.942;2023-08-07T02:43:28;1.25;;;0.80;;
33672;SDS011;20011;51.510;9.942;2023-08-07T02:45:56;2.85;;;0.93;;
33672;SDS011;20011;51.510;9.942;2023-08-07T02:48:24;0.93;;;0.70;;
33672;SDS011;20011;51.510;9.942;2023-08-07T02:50:51;1.35;;;0.75;;
33672;SDS011;20011;51.510;9.942;2023-08-07T02:53:19;2.38;;;1.05;;
33672;SDS011;20011;51.510;9.942;2023-08-07T02:55:46;5.03;;;0.73;;
33672;SDS011;20011;51.510;9.942;2023-08-07T02:58:13;1.92;;;0.50;;
33672;SDS011;20011;51.510;9.942;2023-08-07T03:00:40;1.20;;;0.75;;
33672;SDS011;20011;51.510;9.942;2023-08-07T03:03:07;0.70;;;0.50;;
33672;SDS011;20011;51.510;9.942;2023-08-07T03:05:34;0.45;;;0.45;;
33672;SDS011;20011;51.510;9.942;2023-08-07T03:08:01;1.05;;;0.50;;
33672;SDS011;20011;51.510;9.942;2023-08-07T03:10:28;0.98;;;0.47;;
33672;SDS011;20011;51.510;9.942;2023-08-07T03:12:54;0.50;;;0.50;;
33672;SDS011;20011;51.510;9.942;2023-08-07T03:15:22;1.08;;;0.50;;
33672;SDS011;20011;51.510;9.942;2023-08-07T03:17:48;1.67;;;0.40;;
33672;SDS011;20011;51.510;9.942;2023-08-07T03:20:15;0.40;;;0.40;;
33672;SDS011;20011;51.510;9.942;2023-08-07T03:22:42;1.20;;;0.50;;
33672;SDS011;20011;51.510;9.942;2023-08-07T03:25:09;0.75;;;0.32;;
33672;SDS011;20011;51.510;9.942;2023-08-07T03:27:36;0.30;;;0.30;;
33672;SDS011;20011;51.510;9.942;2023-08-07T03:30:04;0.73;;;0.32;;
33672;SDS011;20011;51.510;9.942;2023-08-07T03:32:31;0.30;;;0.30;;
33672;SDS011;20011;51.510;9.942;2023-08-07T03:34:58;3.33;;;0.65;;
33672;SDS011;20011;51.510;9.942;2023-08-07T03:37:26;1.55;;;0.57;;
33672;SDS011;20011;51.510;9.942;2023-08-07T03:39:53;1.05;;;0.40;;
33672;SDS011;20011;51.510;9.942;2023-08-07T03:42:20;0.88;;;0.40;;
33672;SDS011;20011;51.510;9.942;2023-08-07T03:44:47;0.55;;;0.50;;
33672;SDS011;20011;51.510;9.942;2023-08-07T03:47:14;0.50;;;0.50;;
33672;SDS011;20011;51.510;9.942;2023-08-07T03:49:41;5.10;;;0.50;;
33672;SDS011;20011;51.510;9.942;2023-08-07T03:52:08;0.45;;;0.43;;
33672;SDS011;20011;51.510;9.942;2023-08-07T03:54:37;0.45;;;0.45;;
33672;SDS011;20011;51.510;9.942;2023-08-07T03:57:04;1.05;;;0.40;;
33672;SDS011;20011;51.510;9.942;2023-08-07T03:59:31;1.23;;;0.70;;
33672;SDS011;20011;51.510;9.942;2023-08-07T04:01:58;1.00;;;0.60;;
33672;SDS011;20011;51.510;9.942;2023-08-07T04:04:25;0.20;;;0.20;;
33672;SDS011;20011;51.510;9.942;2023-08-07T04:06:51;1.90;;;0.60;;
33672;SDS011;20011;51.510;9.942;2023-08-07T04:09:19;0.93;;;0.50;;
33672;SDS011;20011;51.510;9.942;2023-08-07T04:11:46;0.98;;;0.63;;
33672;SDS011;20011;51.510;9.942;2023-08-07T04:14:13;0.85;;;0.85;;
33672;SDS011;20011;51.510;9.942;2023-08-07T04:16:40;0.77;;;0.50;;
33672;SDS011;20011;51.510;9.942;2023-08-07T04:19:08;1.48;;;0.55;;
33672;SDS011;20011;51.510;9.942;2023-08-07T04:21:35;0.32;;;0.32;;
33672;SDS011;20011;51.510;9.942;2023-08-07T04:24:02;1.27;;;0.50;;
33672;SDS011;20011;51.510;9.942;2023-08-07T04:26:39;1.08;;;0.43;;
33672;SDS011;20011;51.510;9.942;2023-08-07T04:29:06;1.27;;;0.50;;
33672;SDS011;20011;51.510;9.942;2023-08-07T04:31:33;0.32;;;0.32;;
33672;SDS011;20011;51.510;9.942;2023-08-07T04:34:00;0.55;;;0.55;;
33672;SDS011;20011;51.510;9.942;2023-08-07T04:36:27;1.02;;;0.50;;
33672;SDS011;20011;51.510;9.942;2023-08-07T04:38:54;1.08;;;0.50;;
33672;SDS011;20011;51.510;9.942;2023-08-07T04:41:22;0.88;;;0.50;;
33672;SDS011;20011;51.510;9.942;2023-08-07T04:43:49;0.60;;;0.35;;
33672;SDS011;20011;51.510;9.942;2023-08-07T04:46:16;0.82;;;0.43;;
33672;SDS011;20011;51.510;9.942;2023-08-07T04:48:42;2.55;;;0.60;;
33672;SDS011;20011;51.510;9.942;2023-08-07T04:51:09;0.70;;;0.70;;
33672;SDS011;20011;51.510;9.942;2023-08-07T04:53:36;2.15;;;0.63;;
33672;SDS011;20011;51.510;9.942;2023-08-07T04:56:03;1.70;;;0.85;;
33672;SDS011;20011;51.510;9.942;2023-08-07T04:58:30;0.90;;;0.77;;
33672;SDS011;20011;51.510;9.942;2023-08-07T05:00:57;0.80;;;0.80;;
33672;SDS011;20011;51.510;9.942;2023-08-07T05:03:25;6.75;;;1.00;;
33672;SDS011;20011;51.510;9.942;2023-08-07T05:05:59;2.00;;;0.85;;
33672;SDS011;20011;51.510;9.942;2023-08-07T05:08:27;3.10;;;0.70;;
33672;SDS011;20011;51.510;9.942;2023-08-07T05:10:54;1.40;;;0.95;;
33672;SDS011;20011;51.510;9.942;2023-08-07T05:13:21;1.20;;;0.80;;
33672;SDS011;20011;51.510;9.942;2023-08-07T05:15:48;1.95;;;1.00;;
33672;SDS011;20011;51.510;9.942;2023-08-07T05:18:15;1.00;;;0.80;;
33672;SDS011;20011;51.510;9.942;2023-08-07T05:20:42;8.00;;;1.40;;
33672;SDS011;20011;51.510;9.942;2023-08-07T05:23:09;2.88;;;1.25;;
33672;SDS011;20011;51.510;9.942;2023-08-07T05:25:37;1.00;;;0.98;;
33672;SDS011;20011;51.510;9.942;2023-08-07T05:28:04;3.17;;;1.65;;
33672;SDS011;20011;51.510;9.942;2023-08-07T05:30:31;2.80;;;1.23;;
33672;SDS011;20011;51.510;9.942;2023-08-07T05:32:59;4.28;;;1.17;;
33672;SDS011;20011;51.510;9.942;2023-08-07T05:35:26;1.67;;;1.58;;
33672;SDS011;20011;51.510;9.942;2023-08-07T05:37:53;1.60;;;1.25;;
33672;SDS011;20011;51.510;9.942;2023-08-07T05:40:20;1.98;;;1.20;;
33672;SDS011;20011;51.510;9.942;2023-08-07T05:42:47;3.72;;;1.80;;
33672;SDS011;20011;51.510;9.942;2023-08-07T05:45:14;2.33;;;1.30;;
33672;SDS011;20011;51.510;9.942;2023-08-07T05:47:41;2.72;;;1.60;;
33672;SDS011;20011;51.510;9.942;2023-08-07T05:50:08;5.78;;;1.90;;
33672;SDS011;20011;51.510;9.942;2023-08-07T05:52:35;1.90;;;1.48;;
33672;SDS011;20011;51.510;9.942;2023-08-07T05:55:03;3.00;;;1.85;;
33672;SDS011;20011;51.510;9.942;2023-08-07T05:57:33;4.45;;;2.00;;
33672;SDS011;20011;51.510;9.942;2023-08-07T06:00:00;3.20;;;1.67;;
33672;SDS011;20011;51.510;9.942;2023-08-07T06:02:37;3.50;;;2.20;;
33672;SDS011;20011;51.510;9.942;2023-08-07T06:05:04;7.82;;;2.13;;
33672;SDS011;20011;51.510;9.942;2023-08-07T06:07:31;5.75;;;1.92;;
33672;SDS011;20011;51.510;9.942;2023-08-07T06:09:58;3.15;;;1.85;;
33672;SDS011;20011;51.510;9.942;2023-08-07T06:12:25;4.57;;;2.45;;
33672;SDS011;20011;51.510;9.942;2023-08-07T06:14:52;2.45;;;1.67;;
33672;SDS011;20011;51.510;9.942;2023-08-07T06:17:19;2.75;;;1.50;;
33672;SDS011;20011;51.510;9.942;2023-08-07T06:19:46;2.58;;;1.67;;
33672;SDS011;20011;51.510;9.942;2023-08-07T06:22:13;3.70;;;1.27;;
33672;SDS011;20011;51.510;9.942;2023-08-07T06:24:39;5.78;;;1.45;;
33672;SDS011;20011;51.510;9.942;2023-08-07T06:27:06;1.08;;;0.77;;
33672;SDS011;20011;51.510;9.942;2023-08-07T06:29:33;1.10;;;1.00;;
33672;SDS011;20011;51.510;9.942;2023-08-07T06:32:00;1.48;;;1.00;;
33672;SDS011;20011;51.510;9.942;2023-08-07T06:34:27;1.90;;;1.05;;
33672;SDS011;20011;51.510;9.942;2023-08-07T06:36:54;0.93;;;0.82;;
33672;SDS011;20011;51.510;9.942;2023-08-07T06:39:21;1.20;;;0.70;;
33672;SDS011;20011;51.510;9.942;2023-08-07T06:41:48;0.93;;;0.82;;
33672;SDS011;20011;51.510;9.942;2023-08-07T06:44:19;1.17;;;0.90;;
33672;SDS011;20011;51.510;9.942;2023-08-07T06:46:46;1.13;;;1.02;;
33672;SDS011;20011;51.510;9.942;2023-08-07T06:49:13;0.98;;;0.70;;
33672;SDS011;20011;51.510;9.942;2023-08-07T06:51:39;1.23;;;0.80;;
33672;SDS011;20011;51.510;9.942;2023-08-07T06:54:06;1.33;;;0.80;;
33672;SDS011;20011;51.510;9.942;2023-08-07T06:56:33;3.40;;;0.77;;
33672;SDS011;20011;51.510;9.942;2023-08-07T06:59:00;0.60;;;0.60;;
33672;SDS011;20011;51.510;9.942;2023-08-07T07:01:27;1.15;;;0.75;;
33672;SDS011;20011;51.510;9.942;2023-08-07T07:03:55;0.82;;;0.80;;
33672;SDS011;20011;51.510;9.942;2023-08-07T07:06:22;11.65;;;0.88;;
33672;SDS011;20011;51.510;9.942;2023-08-07T07:08:52;0.65;;;0.65;;
33672;SDS011;20011;51.510;9.942;2023-08-07T07:13:51;0.88;;;0.70;;
33672;SDS011;20011;51.510;9.942;2023-08-07T07:16:18;1.30;;;0.90;;
33672;SDS011;20011;51.510;9.942;2023-08-07T07:18:49;0.65;;;0.40;;
33672;SDS011;20011;51.510;9.942;2023-08-07T07:21:17;0.68;;;0.68;;
33672;SDS011;20011;51.510;9.942;2023-08-07T07:23:44;0.60;;;0.60;;
33672;SDS011;20011;51.510;9.942;2023-08-07T07:26:14;4.38;;;0.60;;
33672;SDS011;20011;51.510;9.942;2023-08-07T07:28:41;4.40;;;0.80;;
33672;SDS011;20011;51.510;9.942;2023-08-07T07:31:07;0.50;;;0.50;;
33672;SDS011;20011;51.510;9.942;2023-08-07T07:33:38;2.20;;;0.98;;
33672;SDS011;20011;51.510;9.942;2023-08-07T07:36:07;1.33;;;0.70;;
33672;SDS011;20011;51.510;9.942;2023-08-07T07:38:33;1.65;;;0.88;;
33672;SDS011;20011;51.510;9.942;2023-08-07T07:41:00;1.65;;;1.02;;
33672;SDS011;20011;51.510;9.942;2023-08-07T07:43:27;0.90;;;0.82;;
33672;SDS011;20011;51.510;9.942;2023-08-07T07:45:55;1.45;;;0.98;;
33672;SDS011;20011;51.510;9.942;2023-08-07T07:48:22;1.20;;;0.65;;
33672;SDS011;20011;51.510;9.942;2023-08-07T07:50:49;0.70;;;0.70;;
33672;SDS011;20011;51.510;9.942;2023-08-07T07:53:16;4.68;;;1.00;;
33672;SDS011;20011;51.510;9.942;2023-08-07T07:55:46;1.63;;;0.90;;
33672;SDS011;20011;51.510;9.942;2023-08-07T07:58:14;0.90;;;0.90;;
33672;SDS011;20011;51.510;9.942;2023-08-07T08:00:41;0.88;;;0.70;;
33672;SDS011;20011;51.510;9.942;2023-08-07T08:03:08;1.60;;;0.98;;
33672;SDS011;20011;51.510;9.942;2023-08-07T08:05:35;2.45;;;0.90;;
33672;SDS011;20011;51.510;9.942;2023-08-07T08:08:02;2.78;;;1.00;;
33672;SDS011;20011;51.510;9.942;2023-08-07T08:10:29;1.80;;;1.10;;
33672;SDS011;20011;51.510;9.942;2023-08-07T08:12:56;1.95;;;0.90;;
33672;SDS011;20011;51.510;9.942;2023-08-07T08:15:23;0.82;;;0.82;;
33672;SDS011;20011;51.510;9.942;2023-08-07T08:17:50;1.30;;;1.10;;
33672;SDS011;20011;51.510;9.942;2023-08-07T08:20:17;1.58;;;0.88;;
33672;SDS011;20011;51.510;9.942;2023-08-07T08:22:45;1.50;;;1.10;;
33672;SDS011;20011;51.510;9.942;2023-08-07T08:25:13;2.17;;;1.00;;
33672;SDS011;20011;51.510;9.942;2023-08-07T08:27:40;2.03;;;1.02;;
33672;SDS011;20011;51.510;9.942;2023-08-07T08:30:07;2.03;;;1.23;;
33672;SDS011;20011;51.510;9.942;2023-08-07T08:32:35;3.90;;;0.98;;
33672;SDS011;20011;51.510;9.942;2023-08-07T08:35:02;0.98;;;0.98;;
33672;SDS011;20011;51.510;9.942;2023-08-07T08:37:29;2.78;;;0.82;;
33672;SDS011;20011;51.510;9.942;2023-08-07T08:39:56;1.23;;;0.60;;
33672;SDS011;20011;51.510;9.942;2023-08-07T08:42:23;0.63;;;0.60;;
33672;SDS011;20011;51.510;9.942;2023-08-07T08:44:54;0.60;;;0.60;;
33672;SDS011;20011;51.510;9.942;2023-08-07T08:47:22;1.90;;;0.88;;
33672;SDS011;20011;51.510;9.942;2023-08-07T08:50:03;1.02;;;0.50;;
33672;SDS011;20011;51.510;9.942;2023-08-07T08:52:33;0.40;;;0.40;;
33672;SDS011;20011;51.510;9.942;2023-08-07T08:55:01;0.50;;;0.50;;
33672;SDS011;20011;51.510;9.942;2023-08-07T08:57:29;0.35;;;0.32;;
33672;SDS011;20011;51.510;9.942;2023-08-07T08:59:57;0.47;;;0.47;;
33672;SDS011;20011;51.510;9.942;2023-08-07T09:02:25;2.63;;;0.60;;
33672;SDS011;20011;51.510;9.942;2023-08-07T09:04:52;0.63;;;0.50;;
33672;SDS011;20011;51.510;9.942;2023-08-07T09:07:19;1.05;;;0.50;;
33672;SDS011;20011;51.510;9.942;2023-08-07T09:09:47;0.95;;;0.85;;
33672;SDS011;20011;51.510;9.942;2023-08-07T09:12:20;6.05;;;0.90;;
33672;SDS011;20011;51.510;9.942;2023-08-07T09:14:54;1.30;;;0.50;;
33672;SDS011;20011;51.510;9.942;2023-08-07T09:17:27;1.08;;;0.57;;
33672;SDS011;20011;51.510;9.942;2023-08-07T09:19:56;3.33;;;0.73;;
33672;SDS011;20011;51.510;9.942;2023-08-07T09:22:23;1.05;;;0.60;;
33672;SDS011;20011;51.510;9.942;2023-08-07T09:24:50;1.42;;;0.55;;
33672;SDS011;20011;51.510;9.942;2023-08-07T09:27:17;2.97;;;1.00;;
33672;SDS011;20011;51.510;9.942;2023-08-07T09:29:44;2.83;;;0.70;;
33672;SDS011;20011;51.510;9.942;2023-08-07T09:32:13;2.60;;;1.20;;
33672;SDS011;20011;51.510;9.942;2023-08-07T09:34:40;2.75;;;0.63;;
33672;SDS011;20011;51.510;9.942;2023-08-07T09:37:08;2.80;;;1.00;;
33672;SDS011;20011;51.510;9.942;2023-08-07T09:39:36;1.02;;;0.77;;
33672;SDS011;20011;51.510;9.942;2023-08-07T09:42:04;1.20;;;0.60;;
33672;SDS011;20011;51.510;9.942;2023-08-07T09:44:34;1.88;;;0.90;;
33672;SDS011;20011;51.510;9.942;2023-08-07T09:47:11;2.88;;;0.88;;
33672;SDS011;20011;51.510;9.942;2023-08-07T09:49:42;3.00;;;1.00;;
33672;SDS011;20011;51.510;9.942;2023-08-07T09:52:10;1.63;;;1.10;;
33672;SDS011;20011;51.510;9.942;2023-08-07T09:54:44;0.98;;;0.65;;
33672;SDS011;20011;51.510;9.942;2023-08-07T09:57:11;2.08;;;0.90;;
33672;SDS011;20011;51.510;9.942;2023-08-07T09:59:39;2.80;;;1.00;;
33672;SDS011;20011;51.510;9.942;2023-08-07T10:02:07;1.35;;;0.80;;
33672;SDS011;20011;51.510;9.942;2023-08-07T10:04:35;3.30;;;1.00;;
33672;SDS011;20011;51.510;9.942;2023-08-07T10:07:02;3.90;;;1.25;;
33672;SDS011;20011;51.510;9.942;2023-08-07T10:09:30;2.58;;;0.75;;
33672;SDS011;20011;51.510;9.942;2023-08-07T10:11:58;0.65;;;0.65;;
33672;SDS011;20011;51.510;9.942;2023-08-07T10:14:25;6.10;;;1.20;;
33672;SDS011;20011;51.510;9.942;2023-08-07T10:16:53;10.52;;;2.33;;
33672;SDS011;20011;51.510;9.942;2023-08-07T10:19:21;1.15;;;1.00;;
33672;SDS011;20011;51.510;9.942;2023-08-07T10:21:48;4.15;;;1.08;;
33672;SDS011;20011;51.510;9.942;2023-08-07T10:24:16;4.60;;;1.00;;
33672;SDS011;20011;51.510;9.942;2023-08-07T10:26:44;7.78;;;0.80;;
33672;SDS011;20011;51.510;9.942;2023-08-07T10:29:14;2.22;;;1.05;;
33672;SDS011;20011;51.510;9.942;2023-08-07T10:31:44;5.28;;;1.13;;
33672;SDS011;20011;51.510;9.942;2023-08-07T10:34:12;1.45;;;1.17;;
33672;SDS011;20011;51.510;9.942;2023-08-07T10:36:39;2.08;;;0.98;;
33672;SDS011;20011;51.510;9.942;2023-08-07T10:41:47;3.83;;;1.40;;
33672;SDS011;20011;51.510;9.942;2023-08-07T10:44:25;3.33;;;1.40;;
33672;SDS011;20011;51.510;9.942;2023-08-07T10:46:57;1.95;;;1.27;;
33672;SDS011;20011;51.510;9.942;2023-08-07T10:49:38;3.67;;;1.27;;
33672;SDS011;20011;51.510;9.942;2023-08-07T10:54:46;8.45;;;1.70;;
33672;SDS011;20011;51.510;9.942;2023-08-07T10:57:17;16.42;;;1.38;;
33672;SDS011;20011;51.510;9.942;2023-08-07T11:00:00;13.50;;;1.55;;
33672;SDS011;20011;51.510;9.942;2023-08-07T11:02:35;3.28;;;0.90;;
33672;SDS011;20011;51.510;9.942;2023-08-07T11:05:06;2.20;;;0.85;;
33672;SDS011;20011;51.510;9.942;2023-08-07T11:07:33;2.15;;;0.98;;
33672;SDS011;20011;51.510;9.942;2023-08-07T11:10:00;3.47;;;1.00;;
33672;SDS011;20011;51.510;9.942;2023-08-07T11:12:27;4.57;;;1.55;;
33672;SDS011;20011;51.510;9.942;2023-08-07T11:14:55;2.92;;;1.40;;
33672;SDS011;20011;51.510;9.942;2023-08-07T11:17:24;3.83;;;1.15;;
33672;SDS011;20011;51.510;9.942;2023-08-07T11:19:52;4.07;;;1.35;;
33672;SDS011;20011;51.510;9.942;2023-08-07T11:22:21;2.35;;;1.27;;
33672;SDS011;20011;51.510;9.942;2023-08-07T11:24:48;3.53;;;1.35;;
33672;SDS011;20011;51.510;9.942;2023-08-07T11:27:16;2.25;;;0.90;;
33672;SDS011;20011;51.510;9.942;2023-08-07T11:29:47;5.22;;;1.42;;
33672;SDS011;20011;51.510;9.942;2023-08-07T11:32:15;2.90;;;1.30;;
33672;SDS011;20011;51.510;9.942;2023-08-07T11:34:47;3.88;;;0.82;;
33672;SDS011;20011;51.510;9.942;2023-08-07T11:37:16;5.63;;;1.25;;
33672;SDS011;20011;51.510;9.942;2023-08-07T11:39:44;4.53;;;1.45;;
33672;SDS011;20011;51.510;9.942;2023-08-07T11:42:11;1.42;;;0.80;;
33672;SDS011;20011;51.510;9.942;2023-08-07T11:44:38;3.22;;;1.10;;
33672;SDS011;20011;51.510;9.942;2023-08-07T11:47:06;3.45;;;1.13;;
33672;SDS011;20011;51.510;9.942;2023-08-07T11:49:33;5.38;;;2.47;;
33672;SDS011;20011;51.510;9.942;2023-08-07T11:52:00;1.85;;;0.98;;
33672;SDS011;20011;51.510;9.942;2023-08-07T11:54:29;1.85;;;0.90;;
33672;SDS011;20011;51.510;9.942;2023-08-07T11:56:56;6.40;;;1.38;;
33672;SDS011;20011;51.510;9.942;2023-08-07T11:59:23;3.38;;;1.00;;
33672;SDS011;20011;51.510;9.942;2023-08-07T12:01:51;2.22;;;0.93;;
33672;SDS011;20011;51.510;9.942;2023-08-07T12:04:18;1.83;;;1.10;;
33672;SDS011;20011;51.510;9.942;2023-08-07T12:06:52;2.33;;;1.25;;
33672;SDS011;20011;51.510;9.942;2023-08-07T12:09:25;5.85;;;1.77;;
33672;SDS011;20011;51.510;9.942;2023-08-07T12:11:56;2.95;;;1.35;;
33672;SDS011;20011;51.510;9.942;2023-08-07T12:14:28;4.18;;;0.98;;
33672;SDS011;20011;51.510;9.942;2023-08-07T12:16:55;7.78;;;1.33;;
33672;SDS011;20011;51.510;9.942;2023-08-07T12:19:23;2.35;;;1.05;;
33672;SDS011;20011;51.510;9.942;2023-08-07T12:21:50;3.25;;;1.35;;
33672;SDS011;20011;51.510;9.942;2023-08-07T12:24:17;3.45;;;1.38;;
33672;SDS011;20011;51.510;9.942;2023-08-07T12:26:44;5.07;;;1.10;;
33672;SDS011;20011;51.510;9.942;2023-08-07T12:29:11;3.50;;;1.23;;
33672;SDS011;20011;51.510;9.942;2023-08-07T12:31:38;4.47;;;1.42;;
33672;SDS011;20011;51.510;9.942;2023-08-07T12:34:05;3.28;;;1.20;;
33672;SDS011;20011;51.510;9.942;2023-08-07T12:36:35;3.47;;;1.67;;
33672;SDS011;20011;51.510;9.942;2023-08-07T12:39:02;6.07;;;1.85;;
33672;SDS011;20011;51.510;9.942;2023-08-07T12:41:29;2.40;;;1.42;;
33672;SDS011;20011;51.510;9.942;2023-08-07T12:43:59;4.13;;;1.27;;
33672;SDS011;20011;51.510;9.942;2023-08-07T12:46:27;2.53;;;1.60;;
33672;SDS011;20011;51.510;9.942;2023-08-07T12:48:58;8.20;;;2.40;;
33672;SDS011;20011;51.510;9.942;2023-08-07T12:51:24;6.55;;;1.70;;
33672;SDS011;20011;51.510;9.942;2023-08-07T12:53:51;4.43;;;1.85;;
33672;SDS011;20011;51.510;9.942;2023-08-07T12:56:20;10.88;;;1.98;;
33672;SDS011;20011;51.510;9.942;2023-08-07T12:58:47;5.72;;;1.95;;
33672;SDS011;20011;51.510;9.942;2023-08-07T13:01:14;7.22;;;2.15;;
33672;SDS011;20011;51.510;9.942;2023-08-07T13:03:41;5.53;;;1.83;;
33672;SDS011;20011;51.510;9.942;2023-08-07T13:06:08;8.88;;;2.55;;
33672;SDS011;20011;51.510;9.942;2023-08-07T13:11:05;8.70;;;2.10;;
33672;SDS011;20011;51.510;9.942;2023-08-07T13:13:32;8.70;;;2.60;;
33672;SDS011;20011;51.510;9.942;2023-08-07T13:15:59;13.18;;;2.78;;
33672;SDS011;20011;51.510;9.942;2023-08-07T13:18:26;7.90;;;2.55;;
33672;SDS011;20011;51.510;9.942;2023-08-07T13:20:53;8.70;;;3.03;;
33672;SDS011;20011;51.510;9.942;2023-08-07T13:23:20;9.70;;;2.83;;
33672;SDS011;20011;51.510;9.942;2023-08-07T13:25:47;8.98;;;2.80;;
33672;SDS011;20011;51.510;9.942;2023-08-07T13:28:14;11.98;;;3.15;;
33672;SDS011;20011;51.510;9.942;2023-08-07T13:30:42;10.02;;;2.35;;
33672;SDS011;20011;51.510;9.942;2023-08-07T13:33:09;8.30;;;2.80;;
33672;SDS011;20011;51.510;9.942;2023-08-07T13:35:36;6.85;;;2.55;;
33672;SDS011;20011;51.510;9.942;2023-08-07T13:38:04;9.50;;;2.58;;
33672;SDS011;20011;51.510;9.942;2023-08-07T13:40:31;5.00;;;2.45;;
33672;SDS011;20011;51.510;9.942;2023-08-07T13:42:58;7.80;;;2.67;;
33672;SDS011;20011;51.510;9.942;2023-08-07T13:47:55;6.47;;;2.67;;
33672;SDS011;20011;51.510;9.942;2023-08-07T13:50:22;8.15;;;2.83;;
33672;SDS011;20011;51.510;9.942;2023-08-07T13:52:49;14.90;;;2.90;;
33672;SDS011;20011;51.510;9.942;2023-08-07T13:55:29;8.77;;;2.35;;
33672;SDS011;20011;51.510;9.942;2023-08-07T13:57:56;5.47;;;2.75;;
33672;SDS011;20011;51.510;9.942;2023-08-07T14:00:23;10.30;;;2.70;;
33672;SDS011;20011;51.510;9.942;2023-08-07T14:02:50;5.03;;;2.10;;
33672;SDS011;20011;51.510;9.942;2023-08-07T14:05:17;9.98;;;2.88;;
33672;SDS011;20011;51.510;9.942;2023-08-07T14:07:44;10.25;;;2.53;;
33672;SDS011;20011;51.510;9.942;2023-08-07T14:10:11;7.68;;;2.53;;
33672;SDS011;20011;51.510;9.942;2023-08-07T14:12:38;5.25;;;2.30;;
33672;SDS011;20011;51.510;9.942;2023-08-07T14:15:05;8.98;;;2.35;;
33672;SDS011;20011;51.510;9.942;2023-08-07T14:17:32;13.88;;;2.60;;
33672;SDS011;20011;51.510;9.942;2023-08-07T14:19:59;9.95;;;2.67;;
33672;SDS011;20011;51.510;9.942;2023-08-07T14:22:26;10.55;;;2.55;;
33672;SDS011;20011;51.510;9.942;2023-08-07T14:24:53;13.70;;;2.75;;
33672;SDS011;20011;51.510;9.942;2023-08-07T14:27:20;7.93;;;2.70;;
33672;SDS011;20011;51.510;9.942;2023-08-07T14:29:47;10.15;;;2.97;;
33672;SDS011;20011;51.510;9.942;2023-08-07T14:32:14;10.25;;;2.53;;
33672;SDS011;20011;51.510;9.942;2023-08-07T14:34:41;8.02;;;2.83;;
33672;SDS011;20011;51.510;9.942;2023-08-07T14:37:08;19.05;;;3.13;;
33672;SDS011;20011;51.510;9.942;2023-08-07T14:39:35;6.35;;;2.78;;
33672;SDS011;20011;51.510;9.942;2023-08-07T14:42:01;10.38;;;3.03;;
33672;SDS011;20011;51.510;9.942;2023-08-07T14:44:29;9.00;;;2.88;;
33672;SDS011;20011;51.510;9.942;2023-08-07T14:46:56;11.75;;;2.50;;
33672;SDS011;20011;51.510;9.942;2023-08-07T14:49:23;9.93;;;3.22;;
33672;SDS011;20011;51.510;9.942;2023-08-07T14:51:50;8.18;;;2.15;;
33672;SDS011;20011;51.510;9.942;2023-08-07T14:54:17;9.25;;;2.88;;
33672;SDS011;20011;51.510;9.942;2023-08-07T14:56:43;4.68;;;2.92;;
33672;SDS011;20011;51.510;9.942;2023-08-07T14:59:10;11.95;;;2.95;;
33672;SDS011;20011;51.510;9.942;2023-08-07T15:01:37;7.22;;;2.40;;
33672;SDS011;20011;51.510;9.942;2023-08-07T15:04:04;7.53;;;2.22;;
33672;SDS011;20011;51.510;9.942;2023-08-07T15:06:32;9.98;;;2.03;;
33672;SDS011;20011;51.510;9.942;2023-08-07T15:08:59;7.43;;;1.98;;